createdAt,value
2018-03-03T00:01:06.528Z,2.35
2018-03-03T00:03:36.233Z,2.25
2018-03-03T00:06:06.816Z,2.21
2018-03-03T00:08:38.041Z,2.19
2018-03-03T00:11:08.044Z,2.24
2018-03-03T00:13:37.656Z,2.26
2018-03-03T00:16:07.813Z,2.27
2018-03-03T00:18:37.521Z,2.24
2018-03-03T00:21:07.262Z,2.25
2018-03-03T00:23:37.370Z,2.27
2018-03-03T00:26:06.991Z,2.34
2018-03-03T00:28:36.863Z,2.32
2018-03-03T00:31:07.375Z,2.43
2018-03-03T00:33:37.383Z,2.38
2018-03-03T00:36:07.047Z,2.42
2018-03-03T00:38:37.200Z,2.39
2018-03-03T00:41:06.918Z,2.40
2018-03-03T00:43:36.537Z,2.40
2018-03-03T00:46:08.568Z,2.40
2018-03-03T00:48:38.169Z,2.40
2018-03-03T00:51:08.392Z,2.40
2018-03-03T00:53:39.600Z,2.39
2018-03-03T00:56:09.403Z,2.43
2018-03-03T00:58:38.623Z,2.36
2018-03-03T01:01:08.248Z,2.33
2018-03-03T01:06:14.607Z,2.35
2018-03-03T01:08:44.140Z,2.39
2018-03-03T01:11:13.384Z,2.41
2018-03-03T01:13:42.639Z,2.40
2018-03-03T01:16:12.379Z,2.45
2018-03-03T01:18:41.669Z,2.44
2018-03-03T01:21:10.970Z,2.48
2018-03-03T01:23:41.684Z,2.42
2018-03-03T01:26:11.549Z,2.36
2018-03-03T01:28:40.781Z,2.39
2018-03-03T01:31:10.523Z,2.41
2018-03-03T01:33:40.099Z,2.44
2018-03-03T01:36:09.390Z,2.51
2018-03-03T01:38:38.946Z,2.40
2018-03-03T01:41:08.190Z,2.42
2018-03-03T01:43:37.428Z,2.51
2018-03-03T01:46:07.053Z,2.48
2018-03-03T01:48:36.452Z,2.37
2018-03-03T01:51:06.711Z,2.42
2018-03-03T01:53:36.384Z,2.46
2018-03-03T01:56:07.576Z,2.47
2018-03-03T01:58:37.699Z,2.51
2018-03-03T02:01:09.145Z,2.50
2018-03-03T02:03:40.526Z,2.41
2018-03-03T02:06:09.845Z,2.42
2018-03-03T02:08:39.104Z,2.41
2018-03-03T02:11:08.617Z,2.35
2018-03-03T02:13:41.542Z,2.36
2018-03-03T02:16:11.108Z,2.42
2018-03-03T02:18:40.730Z,2.42
2018-03-03T02:21:12.708Z,2.43
2018-03-03T02:23:42.682Z,2.47
2018-03-03T02:26:14.784Z,2.47
2018-03-03T02:28:46.782Z,2.48
2018-03-03T02:31:16.211Z,2.46
2018-03-03T02:33:45.530Z,2.42
2018-03-03T02:36:15.249Z,2.42
2018-03-03T02:38:44.648Z,2.44
2018-03-03T02:41:14.000Z,2.40
2018-03-03T02:43:43.671Z,2.42
2018-03-03T02:46:13.060Z,2.44
2018-03-03T02:48:42.364Z,2.42
2018-03-03T02:51:12.147Z,2.40
2018-03-03T02:53:41.485Z,2.42
2018-03-03T02:56:10.764Z,2.52
2018-03-03T02:58:40.614Z,2.51
2018-03-03T03:01:09.945Z,2.43
2018-03-03T03:03:39.406Z,2.53
2018-03-03T03:06:09.059Z,2.55
2018-03-03T03:08:38.436Z,2.50
2018-03-03T03:11:07.748Z,2.51
2018-03-03T03:13:37.687Z,2.47
2018-03-03T03:16:06.966Z,2.43
2018-03-03T03:18:36.352Z,2.44
2018-03-03T03:21:08.045Z,2.42
2018-03-03T03:23:37.597Z,2.43
2018-03-03T03:26:06.902Z,2.48
2018-03-03T03:28:36.539Z,2.51
2018-03-03T03:31:06.049Z,2.46
2018-03-03T03:33:35.541Z,2.48
2018-03-03T03:36:06.587Z,2.54
2018-03-03T03:38:35.982Z,2.52
2018-03-03T03:41:05.428Z,2.51
2018-03-03T03:43:35.251Z,2.59
2018-03-03T03:46:05.078Z,2.63
2018-03-03T03:48:34.494Z,2.62
2018-03-03T03:51:03.773Z,2.60
2018-03-03T03:53:33.100Z,2.63
2018-03-03T03:56:03.396Z,2.57
2018-03-03T03:58:32.732Z,2.53
2018-03-03T04:01:02.075Z,2.47
2018-03-03T04:03:32.851Z,2.46
2018-03-03T04:06:02.868Z,2.46
2018-03-03T04:08:32.229Z,2.50
2018-03-03T04:11:01.982Z,2.47
2018-03-03T04:13:31.304Z,2.51
2018-03-03T04:16:00.589Z,2.58
2018-03-03T04:18:30.287Z,2.60
2018-03-03T04:21:02.048Z,2.62
2018-03-03T04:23:34.925Z,2.65
2018-03-03T04:26:09.598Z,2.59
2018-03-03T04:28:39.202Z,2.63
2018-03-03T04:31:08.765Z,2.69
2018-03-03T04:33:38.776Z,2.67
2018-03-03T04:36:08.313Z,2.70
2018-03-03T04:38:37.815Z,2.65
2018-03-03T04:41:07.650Z,2.71
2018-03-03T04:43:37.099Z,2.69
2018-03-03T04:46:06.494Z,2.66
2018-03-03T04:48:35.877Z,2.64
2018-03-03T04:51:05.750Z,2.55
2018-03-03T04:53:35.105Z,2.63
2018-03-03T04:56:05.914Z,2.58
2018-03-03T04:58:35.338Z,2.59
2018-03-03T05:01:05.061Z,2.59
2018-03-03T05:03:34.444Z,2.58
2018-03-03T05:06:04.885Z,2.55
2018-03-03T05:08:34.366Z,2.57
2018-03-03T05:11:04.345Z,2.56
2018-03-03T05:13:33.719Z,2.58
2018-03-03T05:16:03.842Z,2.57
2018-03-03T05:18:34.357Z,2.58
2018-03-03T05:21:04.083Z,2.57
2018-03-03T05:23:34.176Z,2.59
2018-03-03T05:26:08.441Z,2.62
2018-03-03T05:28:38.510Z,2.63
2018-03-03T05:31:08.055Z,2.55
2018-03-03T05:33:37.641Z,2.54
2018-03-03T05:36:07.466Z,2.51
2018-03-03T05:38:37.542Z,2.52
2018-03-03T05:41:07.893Z,2.50
2018-03-03T05:43:37.259Z,2.52
2018-03-03T05:46:06.865Z,2.51
2018-03-03T05:48:36.232Z,2.46
2018-03-03T05:51:05.631Z,2.58
2018-03-03T05:53:35.335Z,2.60
2018-03-03T05:56:05.936Z,2.57
2018-03-03T05:58:35.359Z,2.47
2018-03-03T06:01:05.068Z,2.51
2018-03-03T06:03:34.452Z,2.53
2018-03-03T06:06:05.010Z,2.52
2018-03-03T06:08:34.528Z,2.51
2018-03-03T06:11:05.921Z,2.49
2018-03-03T06:13:35.279Z,2.55
2018-03-03T06:16:05.351Z,2.58
2018-03-03T06:18:35.247Z,2.61
2018-03-03T06:21:04.924Z,2.62
2018-03-03T06:23:34.270Z,2.60
2018-03-03T06:26:05.260Z,2.56
2018-03-03T06:28:35.134Z,2.54
2018-03-03T06:31:04.786Z,2.53
2018-03-03T06:33:35.031Z,2.49
2018-03-03T06:36:06.509Z,2.43
2018-03-03T06:38:35.897Z,2.46
2018-03-03T06:41:05.303Z,2.57
2018-03-03T06:43:34.666Z,2.49
2018-03-03T06:46:05.066Z,2.58
2018-03-03T06:48:34.341Z,2.54
2018-03-03T06:51:04.286Z,2.57
2018-03-03T06:53:33.884Z,2.51
2018-03-03T06:56:04.524Z,2.58
2018-03-03T06:58:33.828Z,2.58
2018-03-03T07:01:03.522Z,2.60
2018-03-03T07:03:33.241Z,2.51
2018-03-03T07:06:03.314Z,2.61
2018-03-03T07:08:32.799Z,2.65
2018-03-03T07:11:03.361Z,2.64
2018-03-03T07:13:32.767Z,2.64
2018-03-03T07:16:03.846Z,2.73
2018-03-03T07:18:33.522Z,2.76
2018-03-03T07:21:03.110Z,2.75
2018-03-03T07:23:32.365Z,2.75
2018-03-03T07:26:03.036Z,2.83
2018-03-03T07:28:32.282Z,2.89
2018-03-03T07:31:01.793Z,2.94
2018-03-03T07:33:31.427Z,2.98
2018-03-03T07:36:00.751Z,3.03
2018-03-03T07:38:30.013Z,3.05
2018-03-03T07:40:59.638Z,3.02
2018-03-03T07:43:28.870Z,2.99
2018-03-03T07:45:58.096Z,3.03
2018-03-03T07:48:27.884Z,3.06
2018-03-03T07:50:57.247Z,3.11
2018-03-03T07:53:26.507Z,3.14
2018-03-03T07:55:56.363Z,2.96
2018-03-03T08:01:06.011Z,3.13
2018-03-03T08:03:35.442Z,3.16
2018-03-03T08:06:05.878Z,3.23
2018-03-03T08:08:35.971Z,3.33
2018-03-03T08:11:05.535Z,3.31
2018-03-03T08:13:34.763Z,3.36
2018-03-03T08:16:05.175Z,3.40
2018-03-03T08:18:34.388Z,3.46
2018-03-03T08:21:03.979Z,3.47
2018-03-03T08:25:59.060Z,3.53
2018-03-03T08:28:28.452Z,3.61
2018-03-03T08:30:59.319Z,3.72
2018-03-03T08:33:28.702Z,3.67
2018-03-03T08:35:58.037Z,3.76
2018-03-03T08:38:27.829Z,3.66
2018-03-03T08:40:57.832Z,3.72
2018-03-03T08:43:33.170Z,3.76
2018-03-03T08:46:03.306Z,3.68
2018-03-03T08:48:32.650Z,3.76
2018-03-03T08:51:02.106Z,3.80
2018-03-03T08:53:32.064Z,3.95
2018-03-03T08:56:02.191Z,3.97
2018-03-03T08:58:31.576Z,4.15
2018-03-03T09:01:01.376Z,4.21
2018-03-03T09:03:30.762Z,4.25
2018-03-03T09:06:00.062Z,4.28
2018-03-03T09:08:29.740Z,4.34
2018-03-03T09:10:59.004Z,4.28
2018-03-03T09:13:28.295Z,4.27
2018-03-03T09:15:57.962Z,4.40
2018-03-03T09:18:27.259Z,4.48
2018-03-03T09:20:58.066Z,4.50
2018-03-03T09:23:27.965Z,4.48
2018-03-03T09:25:57.396Z,4.42
2018-03-03T09:28:27.427Z,4.58
2018-03-03T09:30:57.791Z,4.56
2018-03-03T09:33:28.371Z,4.59
2018-03-03T09:35:58.511Z,4.61
2018-03-03T09:38:28.799Z,4.65
2018-03-03T09:40:59.872Z,4.55
2018-03-03T09:43:29.284Z,4.71
2018-03-03T09:45:59.188Z,4.78
2018-03-03T09:48:28.570Z,4.95
2018-03-03T09:50:58.774Z,4.98
2018-03-03T09:53:28.766Z,4.98
2018-03-03T09:55:58.554Z,5.02
2018-03-03T09:58:27.845Z,5.10
2018-03-03T10:00:59.198Z,5.20
2018-03-03T10:03:28.681Z,5.16
2018-03-03T10:06:01.157Z,5.13
2018-03-03T10:08:31.639Z,5.24
2018-03-03T10:11:02.895Z,5.42
2018-03-03T10:13:32.311Z,5.49
2018-03-03T10:16:05.524Z,5.58
2018-03-03T10:18:35.473Z,5.50
2018-03-03T10:21:05.231Z,5.57
2018-03-03T10:23:35.559Z,5.60
2018-03-03T10:26:05.886Z,5.76
2018-03-03T10:28:35.157Z,5.72
2018-03-03T10:31:07.934Z,5.85
2018-03-03T10:33:37.250Z,5.84
2018-03-03T10:36:06.580Z,5.95
2018-03-03T10:38:36.213Z,6.03
2018-03-03T10:41:06.101Z,6.15
2018-03-03T10:43:36.114Z,6.08
2018-03-03T10:46:07.163Z,6.21
2018-03-03T10:48:36.985Z,6.22
2018-03-03T10:51:06.561Z,6.26
2018-03-03T10:53:36.306Z,6.48
2018-03-03T10:56:06.076Z,6.52
2018-03-03T10:58:35.498Z,6.52
2018-03-03T11:01:06.377Z,6.60
2018-03-03T11:03:35.650Z,6.64
2018-03-03T11:06:05.907Z,6.67
2018-03-03T11:08:35.935Z,6.67
2018-03-03T11:11:05.798Z,6.85
2018-03-03T11:13:35.159Z,6.76
2018-03-03T11:16:05.811Z,6.74
2018-03-03T11:18:35.355Z,6.79
2018-03-03T11:21:05.561Z,6.87
2018-03-03T11:23:35.743Z,6.95
2018-03-03T11:26:07.202Z,7.23
2018-03-03T11:28:37.538Z,7.82
2018-03-03T11:31:07.283Z,8.10
2018-03-03T11:33:37.378Z,8.65
2018-03-03T11:36:06.821Z,9.05
2018-03-03T11:38:36.815Z,9.50
2018-03-03T11:41:06.150Z,9.93
2018-03-03T11:43:35.499Z,10.26
2018-03-03T11:46:08.075Z,10.76
2018-03-03T11:48:37.672Z,10.92
2018-03-03T11:51:07.003Z,10.90
2018-03-03T11:53:37.171Z,11.13
2018-03-03T11:56:06.467Z,11.22
2018-03-03T11:58:35.781Z,10.97
2018-03-03T12:03:41.708Z,10.95
2018-03-03T12:06:11.464Z,11.20
2018-03-03T12:08:41.446Z,11.35
2018-03-03T12:11:11.493Z,11.57
2018-03-03T12:13:41.147Z,12.07
2018-03-03T12:16:10.550Z,11.70
2018-03-03T12:18:40.059Z,12.23
2018-03-03T12:21:10.377Z,12.18
2018-03-03T12:23:39.737Z,12.43
2018-03-03T12:26:09.075Z,11.89
2018-03-03T12:28:38.852Z,11.65
2018-03-03T12:31:08.196Z,11.79
2018-03-03T12:33:37.434Z,12.29
2018-03-03T12:36:07.120Z,12.06
2018-03-03T12:38:36.458Z,11.75
2018-03-03T12:41:05.766Z,12.26
2018-03-03T12:43:35.498Z,12.37
2018-03-03T12:46:05.612Z,12.54
2018-03-03T12:48:34.921Z,12.94
2018-03-03T12:51:05.215Z,12.90
2018-03-03T12:53:34.497Z,12.88
2018-03-03T12:56:05.078Z,12.91
2018-03-03T12:58:34.996Z,12.91
2018-03-03T13:01:05.341Z,13.09
2018-03-03T13:03:34.778Z,13.38
2018-03-03T13:06:05.230Z,13.29
2018-03-03T13:08:34.509Z,13.10
2018-03-03T13:11:04.096Z,13.64
2018-03-03T13:13:33.389Z,13.09
2018-03-03T13:18:41.766Z,13.59
2018-03-03T13:21:11.237Z,13.84
2018-03-03T13:23:40.633Z,14.47
2018-03-03T13:26:11.236Z,13.84
2018-03-03T13:28:40.802Z,14.25
2018-03-03T13:31:10.104Z,14.54
2018-03-03T13:33:39.440Z,14.11
2018-03-03T13:36:08.859Z,14.65
2018-03-03T13:38:38.583Z,14.72
2018-03-03T13:41:07.880Z,14.92
2018-03-03T13:43:37.182Z,14.86
2018-03-03T13:46:07.039Z,14.62
2018-03-03T13:48:36.327Z,14.22
2018-03-03T13:51:05.739Z,14.46
2018-03-03T13:53:35.493Z,14.73
2018-03-03T13:56:05.684Z,14.29
2018-03-03T13:58:35.017Z,14.26
2018-03-03T14:01:05.111Z,14.17
2018-03-03T14:03:34.448Z,14.06
2018-03-03T14:06:04.767Z,14.39
2018-03-03T14:08:34.441Z,13.99
2018-03-03T14:11:03.789Z,13.78
2018-03-03T14:13:33.141Z,13.73
2018-03-03T14:16:03.763Z,14.31
2018-03-03T14:18:33.267Z,14.54
2018-03-03T14:21:02.969Z,14.74
2018-03-03T14:23:32.813Z,14.29
2018-03-03T14:26:03.876Z,14.62
2018-03-03T14:28:33.206Z,14.22
2018-03-03T14:31:03.374Z,14.48
2018-03-03T14:33:32.654Z,13.87
2018-03-03T14:36:02.712Z,14.46
2018-03-03T14:38:32.341Z,13.48
2018-03-03T14:41:01.974Z,13.25
2018-03-03T14:43:31.291Z,13.11
2018-03-03T14:46:00.895Z,13.01
2018-03-03T14:48:30.283Z,13.03
2018-03-03T14:50:59.997Z,13.09
2018-03-03T14:53:29.632Z,13.10
2018-03-03T14:55:58.887Z,12.57
2018-03-03T14:58:28.173Z,12.77
2018-03-03T15:00:57.951Z,12.79
2018-03-03T15:03:27.287Z,13.16
2018-03-03T15:05:56.543Z,13.11
2018-03-03T15:08:26.312Z,12.61
2018-03-03T15:10:55.591Z,12.93
2018-03-03T15:13:25.124Z,12.80
2018-03-03T15:15:55.693Z,12.47
2018-03-03T15:18:25.485Z,11.88
2018-03-03T15:20:54.792Z,11.38
2018-03-03T15:23:24.048Z,10.70
2018-03-03T15:25:53.591Z,10.61
2018-03-03T15:28:23.314Z,10.45
2018-03-03T15:30:52.784Z,10.22
2018-03-03T15:33:22.027Z,10.02
2018-03-03T17:04:21.292Z,7.51
2018-03-03T17:06:50.580Z,7.36
2018-03-03T17:09:20.400Z,7.37
2018-03-03T17:11:49.634Z,7.30
2018-03-03T17:14:18.877Z,7.23
2018-03-03T17:16:48.802Z,7.22
2018-03-03T17:19:18.128Z,7.20
2018-03-03T17:21:47.423Z,7.18
2018-03-03T17:24:17.136Z,7.10
2018-03-03T17:26:46.361Z,7.00
2018-03-03T17:29:15.877Z,7.06
2018-03-03T17:31:45.652Z,7.02
2018-03-03T17:34:15.106Z,7.03
2018-03-03T17:36:44.658Z,6.98
2018-03-03T17:39:14.313Z,7.03
2018-03-03T17:41:43.575Z,7.02
2018-03-03T17:44:12.816Z,7.06
2018-03-03T17:46:42.460Z,6.87
2018-03-03T17:49:11.789Z,6.75
2018-03-03T17:51:41.103Z,6.77
2018-03-03T17:54:10.871Z,6.70
2018-03-03T17:56:40.387Z,6.59
2018-03-03T17:59:10.274Z,6.64
2018-03-03T18:01:39.966Z,6.64
2018-03-03T18:04:09.318Z,6.61
2018-03-03T18:06:38.613Z,6.48
2018-03-03T18:09:08.638Z,6.54
2018-03-03T18:11:37.945Z,6.51
2018-03-03T18:14:07.786Z,6.56
2018-03-03T18:16:37.410Z,6.56
2018-03-03T18:19:06.827Z,6.59
2018-03-03T18:21:36.252Z,6.56
2018-03-03T18:24:11.460Z,6.61
2018-03-03T18:26:41.096Z,6.72
2018-03-03T18:29:10.605Z,6.68
2018-03-03T18:31:40.403Z,6.70
2018-03-03T18:34:09.741Z,6.80
2018-03-03T18:36:39.029Z,6.80
2018-03-03T18:39:08.583Z,6.74
2018-03-03T18:41:37.919Z,6.77
2018-03-03T18:44:07.732Z,6.63
2018-03-03T18:46:37.475Z,6.55
2018-03-03T18:49:06.752Z,6.58
2018-03-03T18:51:36.115Z,6.53
2018-03-03T18:54:06.381Z,6.65
2018-03-03T18:56:35.900Z,6.74
2018-03-03T18:59:05.932Z,6.72
2018-03-03T19:01:40.467Z,6.76
2018-03-03T19:04:09.772Z,6.86
2018-03-03T19:06:39.257Z,6.83
2018-03-03T19:09:08.844Z,6.79
2018-03-03T19:11:38.172Z,6.82
2018-03-03T19:14:07.521Z,6.83
2018-03-03T19:16:37.165Z,6.87
2018-03-03T19:19:06.462Z,6.82
2018-03-03T19:21:35.720Z,6.82
2018-03-03T19:24:06.510Z,6.81
2018-03-03T19:26:35.804Z,6.72
2018-03-03T19:29:05.429Z,6.76
2018-03-03T19:31:35.227Z,6.80
2018-03-03T19:34:05.408Z,6.78
2018-03-03T19:36:34.733Z,6.77
2018-03-03T19:39:05.522Z,6.80
2018-03-03T19:41:35.090Z,6.81
2018-03-03T19:44:05.464Z,6.82
2018-03-03T19:46:35.745Z,6.77
2018-03-03T19:49:05.489Z,6.81
2018-03-03T19:51:35.300Z,6.76
2018-03-03T19:54:08.343Z,6.76
2018-03-03T19:56:38.278Z,6.70
2018-03-03T19:59:07.818Z,6.76
2018-03-03T20:01:37.764Z,6.75
2018-03-03T20:04:07.585Z,6.71
2018-03-03T20:06:37.292Z,6.75
2018-03-03T20:09:07.320Z,6.72
2018-03-03T20:11:37.027Z,6.82
2018-03-03T20:14:07.229Z,6.89
2018-03-03T20:16:38.118Z,6.75
2018-03-03T20:19:08.163Z,6.62
2018-03-03T20:21:37.854Z,6.43
2018-03-03T20:24:08.491Z,6.45
2018-03-03T20:26:38.218Z,6.27
2018-03-03T20:29:08.919Z,6.28
2018-03-03T20:31:39.931Z,6.14
2018-03-03T20:34:09.873Z,6.00
2018-03-03T20:36:39.530Z,5.86
2018-03-03T20:39:09.762Z,5.71
2018-03-03T20:41:39.373Z,5.56
2018-03-03T20:44:09.722Z,5.57
2018-03-03T20:46:39.645Z,5.64
2018-03-03T20:49:09.277Z,5.66
2018-03-03T20:51:38.843Z,5.74
2018-03-03T20:54:09.104Z,5.83
2018-03-03T20:56:39.211Z,5.82
2018-03-03T20:59:09.016Z,5.83
2018-03-03T21:01:39.317Z,5.84
2018-03-03T21:04:08.982Z,5.78
2018-03-03T21:06:38.603Z,5.88
2018-03-03T21:09:08.866Z,5.84
2018-03-03T21:11:38.820Z,5.89
2018-03-03T21:14:08.460Z,5.78
2018-03-03T21:16:38.760Z,5.79
2018-03-03T21:19:08.591Z,5.62
2018-03-03T21:21:38.239Z,5.62
2018-03-03T21:24:09.448Z,5.58
2018-03-03T21:26:39.028Z,5.64
2018-03-03T21:29:09.017Z,5.69
2018-03-03T21:31:39.054Z,5.76
2018-03-03T21:34:08.681Z,5.75
2018-03-03T21:36:38.398Z,5.78
2018-03-03T21:39:08.447Z,5.77
2018-03-03T21:41:38.013Z,5.73
2018-03-03T21:44:07.974Z,5.69
2018-03-03T21:46:38.098Z,5.71
2018-03-03T21:49:07.881Z,5.76
2018-03-03T21:51:37.526Z,5.74
2018-03-03T21:54:07.811Z,5.66
2018-03-03T21:56:37.367Z,5.71
2018-03-03T21:59:06.659Z,5.67
2018-03-03T22:01:36.229Z,5.64
2018-03-03T22:04:06.257Z,5.67
2018-03-03T22:06:35.582Z,5.68
2018-03-03T22:09:06.026Z,5.54
2018-03-03T22:11:35.292Z,5.64
2018-03-03T22:14:05.246Z,5.64
2018-03-03T22:16:35.074Z,5.63
2018-03-03T22:19:05.715Z,5.71
2018-03-03T22:21:35.015Z,5.67
2018-03-03T22:24:06.969Z,5.62
2018-03-03T22:26:36.251Z,5.50
2018-03-03T22:29:05.688Z,5.49
2018-03-03T22:31:35.444Z,5.57
2018-03-03T22:34:05.449Z,5.66
2018-03-03T22:36:35.121Z,5.69
2018-03-03T22:39:06.096Z,5.69
2018-03-03T22:41:35.384Z,5.69
2018-03-03T22:44:06.549Z,5.65
2018-03-03T22:46:37.650Z,5.63
2018-03-03T22:49:06.969Z,5.59
2018-03-03T22:51:36.290Z,5.45
2018-03-03T22:54:06.868Z,5.52
2018-03-03T22:56:36.143Z,5.58
2018-03-03T22:59:05.404Z,5.42
2018-03-03T23:01:35.367Z,5.45
2018-03-03T23:04:05.203Z,5.45
2018-03-03T23:06:34.502Z,5.56
2018-03-03T23:09:04.502Z,5.53
2018-03-03T23:11:33.833Z,5.47
2018-03-03T23:14:04.300Z,5.49
2018-03-03T23:16:34.009Z,5.50
2018-03-03T23:19:03.800Z,5.56
2018-03-03T23:21:33.031Z,5.57
2018-03-03T23:24:04.646Z,5.51
2018-03-03T23:26:33.908Z,5.39
2018-03-03T23:29:03.857Z,5.42
2018-03-03T23:31:33.462Z,5.39
2018-03-03T23:34:03.393Z,5.32
2018-03-03T23:36:32.610Z,5.29
2018-03-03T23:39:02.773Z,5.31
2018-03-03T23:41:32.042Z,5.12
2018-03-03T23:44:01.298Z,5.20
2018-03-03T23:46:30.902Z,5.25
2018-03-03T23:49:00.173Z,5.07
2018-03-03T23:51:29.451Z,5.02
2018-03-03T23:53:59.213Z,4.97
2018-03-03T23:56:28.417Z,5.08
2018-03-03T23:58:58.611Z,5.13
